createdAt,value
2023-04-30T00:01:20.980Z,13.87
2023-04-30T00:03:47.349Z,13.86
2023-04-30T00:06:13.798Z,13.85
2023-04-30T00:08:40.085Z,13.83
2023-04-30T00:11:06.400Z,13.81
2023-04-30T00:13:32.728Z,13.80
2023-04-30T00:15:59.007Z,13.78
2023-04-30T00:18:25.346Z,13.76
2023-04-30T00:20:52.778Z,13.75
2023-04-30T00:23:19.188Z,13.73
2023-04-30T00:25:45.487Z,13.72
2023-04-30T00:28:11.787Z,13.70
2023-04-30T00:30:38.062Z,13.69
2023-04-30T00:33:04.970Z,13.68
2023-04-30T00:35:31.274Z,13.67
2023-04-30T00:37:57.575Z,13.65
2023-04-30T00:40:23.902Z,13.64
2023-04-30T00:42:51.679Z,13.63
2023-04-30T00:45:21.285Z,13.62
2023-04-30T00:47:47.985Z,13.60
2023-04-30T00:50:15.598Z,13.59
2023-04-30T00:52:42.767Z,13.57
2023-04-30T00:55:11.086Z,13.56
2023-04-30T00:57:37.984Z,13.55
2023-04-30T01:00:05.601Z,13.53
2023-04-30T01:02:32.252Z,13.52
2023-04-30T01:04:58.767Z,13.50
2023-04-30T01:07:27.623Z,13.48
2023-04-30T01:09:54.596Z,13.47
2023-04-30T01:12:35.354Z,13.46
2023-04-30T01:15:17.934Z,13.45
2023-04-30T01:17:52.539Z,13.44
2023-04-30T01:20:19.301Z,13.42
2023-04-30T01:22:51.750Z,13.41
2023-04-30T01:25:55.944Z,13.41
2023-04-30T01:28:24.157Z,13.40
2023-04-30T01:30:51.195Z,13.39
2023-04-30T01:33:18.109Z,13.37
2023-04-30T01:36:09.343Z,13.36
2023-04-30T01:39:04.644Z,13.34
2023-04-30T01:41:40.668Z,13.33
2023-04-30T01:44:25.283Z,13.30
2023-04-30T01:47:14.966Z,13.28
2023-04-30T01:49:57.128Z,13.27
2023-04-30T01:52:26.495Z,13.25
2023-04-30T01:55:04.005Z,13.24
2023-04-30T01:57:43.434Z,13.22
2023-04-30T02:00:11.289Z,13.21
2023-04-30T02:02:40.301Z,13.20
2023-04-30T02:05:07.051Z,13.18
2023-04-30T02:07:40.390Z,13.17
2023-04-30T02:10:08.053Z,13.16
2023-04-30T02:12:35.013Z,13.15
2023-04-30T02:15:02.722Z,13.14
2023-04-30T02:17:29.060Z,13.12
2023-04-30T02:19:55.575Z,13.11
2023-04-30T02:22:22.304Z,13.09
2023-04-30T02:24:48.717Z,13.08
2023-04-30T02:27:15.527Z,13.06
2023-04-30T02:29:41.960Z,13.04
2023-04-30T02:32:08.526Z,13.02
2023-04-30T02:34:34.856Z,12.99
2023-04-30T02:37:03.121Z,12.98
2023-04-30T02:39:29.404Z,12.96
2023-04-30T02:41:55.648Z,12.94
2023-04-30T02:44:21.962Z,12.92
2023-04-30T02:46:48.283Z,12.90
2023-04-30T02:49:14.642Z,12.88
2023-04-30T02:51:40.913Z,12.86
2023-04-30T02:54:07.310Z,12.83
2023-04-30T02:56:34.103Z,12.81
2023-04-30T02:59:00.956Z,12.79
2023-04-30T03:01:27.253Z,12.76
2023-04-30T03:03:53.629Z,12.75
2023-04-30T03:06:20.154Z,12.74
2023-04-30T03:08:46.720Z,12.72
2023-04-30T03:11:13.114Z,12.69
2023-04-30T03:13:40.399Z,12.68
2023-04-30T03:16:06.821Z,12.66
2023-04-30T03:18:33.198Z,12.64
2023-04-30T03:20:59.585Z,12.62
2023-04-30T03:23:27.500Z,12.59
2023-04-30T03:25:53.942Z,12.57
2023-04-30T03:28:20.748Z,12.54
2023-04-30T03:30:46.982Z,12.50
2023-04-30T03:33:13.355Z,12.46
2023-04-30T03:35:39.675Z,12.41
2023-04-30T03:38:06.014Z,12.34
2023-04-30T03:40:32.333Z,12.26
2023-04-30T03:42:58.596Z,12.19
2023-04-30T03:45:24.962Z,12.12
2023-04-30T03:47:51.970Z,12.05
2023-04-30T03:50:18.660Z,11.97
2023-04-30T03:52:45.633Z,11.90
2023-04-30T03:55:13.045Z,11.86
2023-04-30T03:57:40.007Z,11.80
2023-04-30T04:00:12.838Z,11.75
2023-04-30T04:02:44.378Z,11.66
2023-04-30T04:05:11.006Z,11.61
2023-04-30T04:07:37.561Z,11.55
2023-04-30T04:10:04.200Z,11.51
2023-04-30T04:12:30.793Z,11.47
2023-04-30T04:14:57.247Z,11.44
2023-04-30T04:17:23.727Z,11.40
2023-04-30T04:19:50.248Z,11.37
2023-04-30T04:22:17.123Z,11.33
2023-04-30T04:24:44.103Z,11.32
2023-04-30T04:27:11.390Z,11.30
2023-04-30T04:29:37.692Z,11.28
2023-04-30T04:32:05.588Z,11.27
2023-04-30T04:34:32.683Z,11.26
2023-04-30T04:36:59.111Z,11.25
2023-04-30T04:39:25.461Z,11.23
2023-04-30T04:41:52.239Z,11.22
2023-04-30T04:44:18.887Z,11.22
2023-04-30T04:46:45.216Z,11.21
2023-04-30T04:49:11.950Z,11.20
2023-04-30T04:51:39.013Z,11.19
2023-04-30T04:54:05.652Z,11.18
2023-04-30T04:56:32.054Z,11.17
2023-04-30T04:58:58.623Z,11.16
2023-04-30T05:01:25.253Z,11.13
2023-04-30T05:03:52.991Z,11.12
2023-04-30T05:06:19.412Z,11.10
2023-04-30T05:08:45.823Z,11.08
2023-04-30T05:11:13.095Z,11.07
2023-04-30T05:13:41.353Z,11.06
2023-04-30T05:16:07.754Z,11.05
2023-04-30T05:18:34.142Z,11.05
2023-04-30T05:21:00.383Z,11.04
2023-04-30T05:23:27.713Z,11.04
2023-04-30T05:25:54.642Z,11.04
2023-04-30T05:28:20.995Z,11.05
2023-04-30T05:30:47.340Z,11.06
2023-04-30T05:33:13.731Z,11.08
2023-04-30T05:35:40.067Z,11.09
2023-04-30T05:38:06.366Z,11.11
2023-04-30T05:40:33.197Z,11.12
2023-04-30T05:42:59.557Z,11.13
2023-04-30T05:45:25.987Z,11.15
2023-04-30T05:47:52.603Z,11.17
2023-04-30T05:50:18.916Z,11.19
2023-04-30T05:52:45.616Z,11.22
2023-04-30T05:55:12.105Z,11.23
2023-04-30T05:57:38.428Z,11.25
2023-04-30T06:00:08.498Z,11.27
2023-04-30T06:02:41.055Z,11.28
2023-04-30T06:05:08.209Z,11.29
2023-04-30T06:07:34.530Z,11.32
2023-04-30T06:10:00.871Z,11.34
2023-04-30T06:12:27.211Z,11.42
2023-04-30T06:14:53.602Z,11.51
2023-04-30T06:17:20.094Z,11.58
2023-04-30T06:19:46.417Z,11.64
2023-04-30T06:22:12.733Z,11.67
2023-04-30T06:24:39.044Z,11.69
2023-04-30T06:27:06.401Z,11.74
2023-04-30T06:29:32.721Z,11.83
2023-04-30T06:31:59.013Z,11.96
2023-04-30T06:34:26.019Z,12.12
2023-04-30T06:36:52.298Z,12.29
2023-04-30T06:39:21.678Z,12.45
2023-04-30T06:41:47.977Z,12.62
2023-04-30T06:44:14.420Z,12.79
2023-04-30T06:46:43.534Z,12.91
2023-04-30T06:49:10.277Z,13.03
2023-04-30T06:51:36.643Z,13.17
2023-04-30T06:54:03.060Z,13.32
2023-04-30T06:56:29.317Z,13.49
2023-04-30T06:58:55.592Z,13.61
2023-04-30T07:01:22.023Z,13.70
2023-04-30T07:03:48.587Z,13.78
2023-04-30T07:06:15.602Z,13.89
2023-04-30T07:08:43.199Z,14.00
2023-04-30T07:11:09.612Z,14.15
2023-04-30T07:13:35.876Z,14.31
2023-04-30T07:16:02.247Z,14.41
2023-04-30T07:18:28.552Z,14.41
2023-04-30T07:20:56.059Z,14.38
2023-04-30T07:23:22.403Z,14.40
2023-04-30T07:25:48.721Z,14.49
2023-04-30T07:28:15.022Z,14.61
2023-04-30T07:30:41.978Z,14.72
2023-04-30T07:33:08.849Z,14.82
2023-04-30T07:35:35.815Z,14.93
2023-04-30T07:38:02.093Z,15.01
2023-04-30T07:40:35.811Z,15.12
2023-04-30T07:43:04.003Z,15.25
2023-04-30T07:45:31.189Z,15.40
2023-04-30T07:47:57.554Z,15.55
2023-04-30T07:50:23.905Z,15.71
2023-04-30T07:52:50.212Z,15.88
2023-04-30T07:55:16.551Z,16.01
2023-04-30T07:57:42.878Z,16.11
2023-04-30T08:00:09.420Z,16.22
2023-04-30T08:02:38.784Z,16.34
2023-04-30T08:05:05.671Z,16.42
2023-04-30T08:07:31.922Z,16.53
2023-04-30T08:09:58.211Z,16.62
2023-04-30T08:12:24.608Z,16.69
2023-04-30T08:15:02.279Z,16.76
2023-04-30T08:17:34.312Z,16.84
2023-04-30T08:20:03.257Z,16.93
2023-04-30T08:22:30.037Z,17.01
2023-04-30T08:24:56.374Z,17.10
2023-04-30T08:27:22.878Z,17.21
2023-04-30T08:29:49.216Z,17.32
2023-04-30T08:32:15.593Z,17.38
2023-04-30T08:34:42.814Z,17.42
2023-04-30T08:37:09.141Z,17.42
2023-04-30T08:39:35.413Z,17.46
2023-04-30T08:42:05.364Z,17.50
2023-04-30T08:44:32.581Z,17.53
2023-04-30T08:47:00.890Z,17.52
2023-04-30T08:49:27.738Z,17.51
2023-04-30T08:51:54.392Z,17.55
2023-04-30T08:54:28.538Z,17.61
2023-04-30T08:56:54.840Z,17.67
2023-04-30T08:59:22.352Z,17.73
2023-04-30T09:01:50.179Z,17.83
2023-04-30T09:04:18.462Z,17.92
2023-04-30T09:06:44.897Z,18.02
2023-04-30T09:09:13.422Z,18.15
2023-04-30T09:11:41.361Z,18.29
2023-04-30T09:14:08.003Z,18.42
2023-04-30T09:16:49.510Z,18.53
2023-04-30T09:19:27.173Z,18.66
2023-04-30T09:21:54.197Z,18.75
2023-04-30T09:24:20.645Z,18.81
2023-04-30T09:26:47.147Z,18.85
2023-04-30T09:29:14.027Z,18.89
2023-04-30T09:31:46.735Z,18.96
2023-04-30T09:34:13.882Z,19.02
2023-04-30T09:37:00.466Z,19.10
2023-04-30T09:39:26.867Z,19.16
2023-04-30T09:42:07.255Z,19.20
2023-04-30T09:44:37.680Z,19.21
2023-04-30T09:47:04.747Z,19.22
2023-04-30T09:49:31.370Z,19.23
2023-04-30T09:52:00.162Z,19.26
2023-04-30T09:54:31.348Z,19.29
2023-04-30T09:57:00.782Z,19.28
2023-04-30T09:59:34.442Z,19.27
2023-04-30T10:02:02.710Z,19.26
2023-04-30T10:04:37.435Z,19.25
2023-04-30T10:07:09.557Z,19.25
2023-04-30T10:09:47.465Z,19.23
2023-04-30T10:12:15.626Z,19.11
2023-04-30T10:14:54.826Z,19.03
2023-04-30T10:17:26.134Z,18.98
2023-04-30T10:19:58.821Z,18.95
2023-04-30T10:22:25.392Z,18.92
2023-04-30T10:24:51.707Z,18.90
2023-04-30T10:27:18.419Z,18.83
2023-04-30T10:29:45.789Z,18.78
2023-04-30T10:32:13.090Z,18.73
2023-04-30T10:34:50.939Z,18.72
2023-04-30T10:37:27.718Z,18.73
2023-04-30T10:39:55.243Z,18.73
2023-04-30T10:42:21.839Z,18.74
2023-04-30T10:44:48.344Z,18.77
2023-04-30T10:47:16.252Z,18.81
2023-04-30T10:49:47.558Z,18.80
2023-04-30T10:52:13.995Z,18.75
2023-04-30T10:54:49.382Z,18.73
2023-04-30T10:57:17.627Z,18.74
2023-04-30T10:59:52.141Z,18.74
2023-04-30T11:02:19.085Z,18.72
2023-04-30T11:05:07.388Z,18.71
2023-04-30T11:07:34.192Z,18.68
2023-04-30T11:10:01.815Z,18.70
2023-04-30T11:12:28.883Z,18.72
2023-04-30T11:15:11.921Z,18.72
2023-04-30T11:17:38.729Z,18.72
2023-04-30T11:20:06.143Z,18.72
2023-04-30T11:22:35.553Z,18.72
2023-04-30T11:25:10.011Z,18.71
2023-04-30T11:27:38.059Z,18.73
2023-04-30T11:30:12.042Z,18.76
2023-04-30T11:32:39.431Z,18.82
2023-04-30T11:35:06.878Z,18.87
2023-04-30T11:37:38.840Z,18.92
2023-04-30T11:40:07.867Z,18.97
2023-04-30T11:42:34.749Z,19.01
2023-04-30T11:45:16.820Z,19.06
2023-04-30T11:47:46.034Z,19.08
2023-04-30T11:50:14.702Z,19.15
2023-04-30T11:52:42.669Z,19.24
2023-04-30T11:55:17.414Z,19.32
2023-04-30T11:57:46.046Z,19.42
2023-04-30T12:00:17.709Z,19.49
2023-04-30T12:02:45.944Z,19.58
2023-04-30T12:05:20.875Z,19.66
2023-04-30T12:07:55.281Z,19.75
2023-04-30T12:10:22.896Z,19.80
2023-04-30T12:12:52.520Z,19.89
2023-04-30T12:15:27.342Z,19.97
2023-04-30T12:17:56.316Z,20.08
2023-04-30T12:20:26.724Z,20.20
2023-04-30T12:22:53.641Z,20.28
2023-04-30T12:25:22.220Z,20.38
2023-04-30T12:27:50.613Z,20.47
2023-04-30T12:30:23.026Z,20.54
2023-04-30T12:32:50.551Z,20.62
2023-04-30T12:35:18.975Z,20.67
2023-04-30T12:37:47.132Z,20.66
2023-04-30T12:40:13.914Z,20.64
2023-04-30T12:42:44.020Z,20.71
2023-04-30T12:45:10.963Z,20.81
2023-04-30T12:47:39.890Z,20.88
2023-04-30T12:50:08.680Z,20.96
2023-04-30T12:52:35.052Z,21.01
2023-04-30T12:55:20.684Z,21.08
2023-04-30T12:58:13.110Z,21.18
2023-04-30T13:00:50.237Z,21.29
2023-04-30T13:03:21.257Z,21.37
2023-04-30T13:05:49.866Z,21.38
2023-04-30T13:08:17.475Z,21.37
2023-04-30T13:10:44.691Z,21.35
2023-04-30T13:13:11.992Z,21.31
2023-04-30T13:15:39.660Z,21.26
2023-04-30T13:18:09.974Z,21.22
2023-04-30T13:20:36.387Z,21.14
2023-04-30T13:23:03.171Z,21.05
2023-04-30T13:25:30.438Z,20.99
2023-04-30T13:27:56.931Z,20.93
2023-04-30T13:30:23.499Z,20.88
2023-04-30T13:32:51.089Z,20.82
2023-04-30T13:35:18.624Z,20.76
2023-04-30T13:37:44.954Z,20.69
2023-04-30T13:40:11.491Z,20.64
2023-04-30T13:42:38.947Z,20.58
2023-04-30T13:45:06.232Z,20.49
2023-04-30T13:47:32.523Z,20.38
2023-04-30T13:50:00.282Z,20.30
2023-04-30T13:52:26.741Z,20.20
2023-04-30T13:54:52.974Z,20.04
2023-04-30T13:57:19.470Z,19.88
2023-04-30T13:59:46.141Z,19.74
2023-04-30T14:02:12.481Z,19.63
2023-04-30T14:04:38.844Z,19.52
2023-04-30T14:07:05.224Z,19.42
2023-04-30T14:09:32.431Z,19.33
2023-04-30T14:11:59.233Z,19.23
2023-04-30T14:14:26.243Z,19.14
2023-04-30T14:16:52.862Z,19.04
2023-04-30T14:19:20.682Z,18.93
2023-04-30T14:21:47.105Z,18.84
2023-04-30T14:24:14.961Z,18.73
2023-04-30T14:26:42.459Z,18.64
2023-04-30T14:29:08.826Z,18.55
2023-04-30T14:31:35.122Z,18.46
2023-04-30T14:34:01.421Z,18.40
2023-04-30T14:36:27.978Z,18.32
2023-04-30T14:38:54.332Z,18.23
2023-04-30T14:41:21.231Z,18.18
2023-04-30T14:43:47.632Z,18.12
2023-04-30T14:46:14.053Z,18.07
2023-04-30T14:48:40.543Z,18.00
2023-04-30T14:51:07.187Z,17.91
2023-04-30T14:53:33.483Z,17.84
2023-04-30T14:56:00.575Z,17.78
2023-04-30T14:58:26.908Z,17.71
2023-04-30T15:00:53.223Z,17.64
2023-04-30T15:03:20.430Z,17.58
2023-04-30T15:05:48.222Z,17.54
2023-04-30T15:08:15.755Z,17.49
2023-04-30T15:10:42.469Z,17.43
2023-04-30T15:13:09.165Z,17.37
2023-04-30T15:15:36.623Z,17.31
2023-04-30T15:18:04.926Z,17.24
2023-04-30T15:20:31.262Z,17.17
2023-04-30T15:22:57.786Z,17.09
2023-04-30T15:25:24.198Z,17.02
2023-04-30T15:27:53.538Z,16.95
2023-04-30T15:30:22.292Z,16.87
2023-04-30T15:32:50.204Z,16.81
2023-04-30T15:35:17.035Z,16.75
2023-04-30T15:37:44.120Z,16.69
2023-04-30T15:40:14.307Z,16.65
2023-04-30T15:42:41.216Z,16.61
2023-04-30T15:45:08.391Z,16.55
2023-04-30T15:47:34.739Z,16.50
2023-04-30T15:50:01.425Z,16.45
2023-04-30T15:52:27.701Z,16.39
2023-04-30T15:54:54.021Z,16.35
2023-04-30T15:57:20.962Z,16.28
2023-04-30T15:59:47.229Z,16.23
2023-04-30T16:02:13.612Z,16.18
2023-04-30T16:04:40.691Z,16.14
2023-04-30T16:07:07.081Z,16.13
2023-04-30T16:09:33.964Z,16.11
2023-04-30T16:12:00.301Z,16.07
2023-04-30T16:14:26.728Z,16.03
2023-04-30T16:16:53.081Z,15.99
2023-04-30T16:19:19.729Z,15.94
2023-04-30T16:21:46.197Z,15.90
2023-04-30T16:24:15.011Z,15.84
2023-04-30T16:26:41.262Z,15.79
2023-04-30T16:29:07.844Z,15.74
2023-04-30T16:31:34.403Z,15.67
2023-04-30T16:34:00.955Z,15.60
2023-04-30T16:36:27.381Z,15.53
2023-04-30T16:38:53.810Z,15.49
2023-04-30T16:41:20.629Z,15.45
2023-04-30T16:43:46.994Z,15.40
2023-04-30T16:46:13.320Z,15.35
2023-04-30T16:48:40.031Z,15.33
2023-04-30T16:51:06.891Z,15.29
2023-04-30T16:53:33.428Z,15.24
2023-04-30T16:55:59.893Z,15.19
2023-04-30T16:58:26.330Z,15.15
2023-04-30T17:00:55.414Z,15.09
2023-04-30T17:03:23.145Z,15.05
2023-04-30T17:05:51.830Z,15.00
2023-04-30T17:08:19.395Z,14.97
2023-04-30T17:10:46.861Z,14.91
2023-04-30T17:13:13.430Z,14.86
2023-04-30T17:15:40.308Z,14.81
2023-04-30T17:18:08.788Z,14.76
2023-04-30T17:20:35.222Z,14.70
2023-04-30T17:23:01.877Z,14.65
2023-04-30T17:25:29.004Z,14.60
2023-04-30T17:27:55.783Z,14.54
2023-04-30T17:30:22.126Z,14.49
2023-04-30T17:32:48.428Z,14.43
2023-04-30T17:35:14.746Z,14.37
2023-04-30T17:37:41.303Z,14.32
2023-04-30T17:40:08.291Z,14.26
2023-04-30T17:42:34.596Z,14.22
2023-04-30T17:45:01.461Z,14.18
2023-04-30T17:47:27.842Z,14.14
2023-04-30T17:49:54.320Z,14.10
2023-04-30T17:52:20.739Z,14.03
2023-04-30T17:54:52.895Z,13.98
2023-04-30T17:57:19.197Z,13.92
2023-04-30T17:59:45.750Z,13.85
2023-04-30T18:02:12.088Z,13.78
2023-04-30T18:04:38.482Z,13.72
2023-04-30T18:07:04.900Z,13.66
2023-04-30T18:09:31.513Z,13.58
2023-04-30T18:11:59.496Z,13.51
2023-04-30T18:14:26.604Z,13.44
2023-04-30T18:16:52.923Z,13.39
2023-04-30T18:19:19.938Z,13.32
2023-04-30T18:21:46.300Z,13.24
2023-04-30T18:24:12.605Z,13.17
2023-04-30T18:26:38.933Z,13.11
2023-04-30T18:29:05.659Z,13.04
2023-04-30T18:31:32.018Z,12.97
2023-04-30T18:33:58.330Z,12.92
2023-04-30T18:36:24.727Z,12.85
2023-04-30T18:38:51.310Z,12.79
2023-04-30T18:41:17.832Z,12.72
2023-04-30T18:43:44.234Z,12.66
2023-04-30T18:46:10.543Z,12.60
2023-04-30T18:48:37.536Z,12.54
2023-04-30T18:51:03.962Z,12.49
2023-04-30T18:53:30.279Z,12.43
2023-04-30T18:55:57.070Z,12.36
2023-04-30T18:58:23.383Z,12.30
2023-04-30T19:00:49.821Z,12.21
2023-04-30T19:03:16.450Z,12.16
2023-04-30T19:05:43.289Z,12.09
2023-04-30T19:08:09.548Z,12.02
2023-04-30T19:10:35.793Z,11.95
2023-04-30T19:13:02.156Z,11.88
2023-04-30T19:15:30.051Z,11.82
2023-04-30T19:17:56.932Z,11.77
2023-04-30T19:20:23.276Z,11.68
2023-04-30T19:22:50.502Z,11.61
2023-04-30T19:25:17.228Z,11.54
2023-04-30T19:27:43.777Z,11.48
2023-04-30T19:30:10.793Z,11.42
2023-04-30T19:32:37.202Z,11.35
2023-04-30T19:35:04.077Z,11.29
2023-04-30T19:37:30.884Z,11.22
2023-04-30T19:39:57.476Z,11.15
2023-04-30T19:42:23.872Z,11.09
2023-04-30T19:44:53.492Z,11.04
2023-04-30T19:47:19.933Z,10.97
2023-04-30T19:49:46.692Z,10.90
2023-04-30T19:52:13.654Z,10.83
2023-04-30T19:54:44.469Z,10.77
2023-04-30T19:57:10.737Z,10.71
2023-04-30T19:59:36.989Z,10.64
2023-04-30T20:02:03.335Z,10.58
2023-04-30T20:04:29.877Z,10.52
2023-04-30T20:06:57.628Z,10.46
2023-04-30T20:09:24.310Z,10.40
2023-04-30T20:11:50.950Z,10.34
2023-04-30T20:14:17.992Z,10.29
2023-04-30T20:16:45.303Z,10.24
2023-04-30T20:19:13.356Z,10.17
2023-04-30T20:21:39.834Z,10.12
2023-04-30T20:24:06.122Z,10.07
2023-04-30T20:26:32.557Z,10.02
2023-04-30T20:29:00.179Z,9.97
2023-04-30T20:31:30.430Z,9.91
2023-04-30T20:33:56.785Z,9.85
2023-04-30T20:36:23.072Z,9.80
2023-04-30T20:38:52.566Z,9.76
2023-04-30T20:41:19.045Z,9.72
2023-04-30T20:43:45.356Z,9.67
2023-04-30T20:46:13.117Z,9.62
2023-04-30T20:48:40.177Z,9.57
2023-04-30T20:51:08.426Z,9.52
2023-04-30T20:53:35.246Z,9.48
2023-04-30T20:56:01.590Z,9.43
2023-04-30T20:58:28.112Z,9.38
2023-04-30T21:00:54.432Z,9.33
2023-04-30T21:03:20.870Z,9.27
2023-04-30T21:05:47.830Z,9.22
2023-04-30T21:08:14.166Z,9.16
2023-04-30T21:10:40.926Z,9.13
2023-04-30T21:13:08.255Z,9.09
2023-04-30T21:15:35.622Z,9.01
2023-04-30T21:18:02.169Z,8.95
2023-04-30T21:20:30.512Z,8.87
2023-04-30T21:22:57.011Z,8.78
2023-04-30T21:25:23.297Z,8.69
2023-04-30T21:27:49.683Z,8.62
2023-04-30T21:30:16.261Z,8.58
2023-04-30T21:32:46.199Z,8.54
2023-04-30T21:35:13.630Z,8.50
2023-04-30T21:37:40.812Z,8.47
2023-04-30T21:40:07.776Z,8.43
2023-04-30T21:42:34.137Z,8.41
2023-04-30T21:45:00.402Z,8.37
2023-04-30T21:47:26.909Z,8.36
2023-04-30T21:49:53.514Z,8.33
2023-04-30T21:52:19.824Z,8.32
2023-04-30T21:54:48.297Z,8.30
2023-04-30T21:57:15.106Z,8.27
2023-04-30T21:59:41.501Z,8.25
2023-04-30T22:02:22.321Z,8.22
2023-04-30T22:04:50.168Z,8.18
2023-04-30T22:07:16.697Z,8.14
2023-04-30T22:09:44.031Z,8.10
2023-04-30T22:12:10.342Z,8.05
2023-04-30T22:14:36.646Z,8.04
2023-04-30T22:17:03.022Z,8.01
2023-04-30T22:19:29.301Z,7.98
2023-04-30T22:21:55.643Z,7.94
2023-04-30T22:24:21.870Z,7.91
2023-04-30T22:26:48.111Z,7.87
2023-04-30T22:29:14.447Z,7.83
2023-04-30T22:31:41.113Z,7.80
2023-04-30T22:34:08.569Z,7.77
2023-04-30T22:36:34.861Z,7.75
2023-04-30T22:39:01.317Z,7.73
2023-04-30T22:41:27.875Z,7.70
2023-04-30T22:43:54.265Z,7.67
2023-04-30T22:46:20.918Z,7.65
2023-04-30T22:48:47.295Z,7.62
2023-04-30T22:51:13.577Z,7.59
2023-04-30T22:53:40.049Z,7.55
2023-04-30T22:56:06.594Z,7.52
2023-04-30T22:58:32.866Z,7.49
2023-04-30T23:00:59.708Z,7.46
2023-04-30T23:03:26.288Z,7.44
2023-04-30T23:05:52.752Z,7.41
2023-04-30T23:08:19.028Z,7.38
2023-04-30T23:10:45.357Z,7.36
2023-04-30T23:13:11.679Z,7.33
2023-04-30T23:15:37.958Z,7.30
2023-04-30T23:18:05.677Z,7.27
2023-04-30T23:20:32.028Z,7.24
2023-04-30T23:22:58.295Z,7.20
2023-04-30T23:25:24.536Z,7.18
2023-04-30T23:27:50.900Z,7.15
2023-04-30T23:30:17.362Z,7.12
2023-04-30T23:32:43.625Z,7.09
2023-04-30T23:35:10.198Z,7.07
2023-04-30T23:37:36.507Z,7.06
2023-04-30T23:40:06.542Z,7.04
2023-04-30T23:42:33.019Z,7.02
2023-04-30T23:44:59.336Z,6.99
2023-04-30T23:47:26.617Z,6.98
2023-04-30T23:49:53.353Z,6.95
2023-04-30T23:52:19.776Z,6.94
2023-04-30T23:54:46.169Z,6.92
2023-04-30T23:57:12.423Z,6.90
2023-04-30T23:59:38.949Z,6.88
